sensor_id;sensor_type;location;lat;lon;timestamp;P1;durP1;ratioP1;P2;durP2;ratioP2
16727;SDS011;8482;54.396;18.590;2023-12-22T06:22:04;9.67;;;1.60;;
16727;SDS011;8482;54.396;18.590;2023-12-22T06:24:30;5.53;;;1.70;;
16727;SDS011;8482;54.396;18.590;2023-12-22T06:26:56;9.63;;;1.40;;
16727;SDS011;8482;54.396;18.590;2023-12-22T06:29:22;7.07;;;1.73;;
16727;SDS011;8482;54.396;18.590;2023-12-22T06:31:48;7.27;;;1.50;;
16727;SDS011;8482;54.396;18.590;2023-12-22T06:34:16;8.83;;;1.97;;
16727;SDS011;8482;54.396;18.590;2023-12-22T06:36:42;6.83;;;1.90;;
16727;SDS011;8482;54.396;18.590;2023-12-22T06:39:08;4.70;;;1.07;;
16727;SDS011;8482;54.396;18.590;2023-12-22T06:41:34;9.97;;;1.57;;
16727;SDS011;8482;54.396;18.590;2023-12-22T06:44:00;6.00;;;1.80;;
16727;SDS011;8482;54.396;18.590;2023-12-22T06:46:26;4.93;;;1.20;;
16727;SDS011;8482;54.396;18.590;2023-12-22T06:48:54;10.03;;;1.60;;
16727;SDS011;8482;54.396;18.590;2023-12-22T06:51:22;8.13;;;1.57;;
16727;SDS011;8482;54.396;18.590;2023-12-22T06:53:54;6.73;;;1.80;;
16727;SDS011;8482;54.396;18.590;2023-12-22T06:56:21;9.53;;;1.47;;
16727;SDS011;8482;54.396;18.590;2023-12-22T06:58:49;5.53;;;1.97;;
16727;SDS011;8482;54.396;18.590;2023-12-22T07:01:18;6.47;;;1.30;;
16727;SDS011;8482;54.396;18.590;2023-12-22T07:03:45;9.23;;;1.67;;
16727;SDS011;8482;54.396;18.590;2023-12-22T07:06:13;6.30;;;1.70;;
16727;SDS011;8482;54.396;18.590;2023-12-22T07:08:43;4.63;;;1.27;;
16727;SDS011;8482;54.396;18.590;2023-12-22T07:11:10;6.47;;;1.30;;
16727;SDS011;8482;54.396;18.590;2023-12-22T07:13:39;4.63;;;1.30;;
16727;SDS011;8482;54.396;18.590;2023-12-22T07:16:04;3.80;;;1.30;;
16727;SDS011;8482;54.396;18.590;2023-12-22T07:18:31;7.53;;;1.80;;
16727;SDS011;8482;54.396;18.590;2023-12-22T07:20:57;5.60;;;1.33;;
16727;SDS011;8482;54.396;18.590;2023-12-22T14:15:28;1.13;;;0.73;;
16727;SDS011;8482;54.396;18.590;2023-12-22T14:17:54;1.47;;;0.90;;
16727;SDS011;8482;54.396;18.590;2023-12-22T14:20:20;2.57;;;0.90;;
16727;SDS011;8482;54.396;18.590;2023-12-22T14:22:46;1.53;;;0.87;;
16727;SDS011;8482;54.396;18.590;2023-12-22T14:25:12;2.27;;;1.00;;
16727;SDS011;8482;54.396;18.590;2023-12-22T14:27:38;1.03;;;0.63;;
16727;SDS011;8482;54.396;18.590;2023-12-22T14:30:04;1.17;;;0.80;;
16727;SDS011;8482;54.396;18.590;2023-12-22T14:32:31;1.00;;;0.67;;
16727;SDS011;8482;54.396;18.590;2023-12-22T14:34:57;1.43;;;0.80;;
16727;SDS011;8482;54.396;18.590;2023-12-22T14:37:22;2.43;;;0.93;;
16727;SDS011;8482;54.396;18.590;2023-12-22T14:39:48;1.30;;;0.60;;
16727;SDS011;8482;54.396;18.590;2023-12-22T14:42:14;2.07;;;0.90;;
16727;SDS011;8482;54.396;18.590;2023-12-22T14:44:40;0.70;;;0.60;;
16727;SDS011;8482;54.396;18.590;2023-12-22T14:47:06;1.70;;;0.70;;
16727;SDS011;8482;54.396;18.590;2023-12-22T14:49:32;1.73;;;0.93;;
16727;SDS011;8482;54.396;18.590;2023-12-22T14:51:57;1.17;;;0.70;;
16727;SDS011;8482;54.396;18.590;2023-12-22T14:54:25;1.20;;;0.67;;
16727;SDS011;8482;54.396;18.590;2023-12-22T14:56:51;0.87;;;0.70;;
16727;SDS011;8482;54.396;18.590;2023-12-22T14:59:17;1.90;;;0.90;;
16727;SDS011;8482;54.396;18.590;2023-12-22T15:01:43;1.80;;;0.90;;
16727;SDS011;8482;54.396;18.590;2023-12-22T15:04:10;1.20;;;0.80;;
16727;SDS011;8482;54.396;18.590;2023-12-22T15:06:39;1.50;;;0.83;;
16727;SDS011;8482;54.396;18.590;2023-12-22T15:09:08;1.30;;;0.80;;
16727;SDS011;8482;54.396;18.590;2023-12-22T15:11:40;4.27;;;1.03;;
16727;SDS011;8482;54.396;18.590;2023-12-22T15:14:10;3.00;;;1.33;;
16727;SDS011;8482;54.396;18.590;2023-12-22T15:16:40;1.63;;;1.00;;
16727;SDS011;8482;54.396;18.590;2023-12-22T15:19:13;2.03;;;0.90;;
16727;SDS011;8482;54.396;18.590;2023-12-22T15:21:40;1.27;;;0.90;;
16727;SDS011;8482;54.396;18.590;2023-12-22T15:24:07;3.00;;;1.20;;
16727;SDS011;8482;54.396;18.590;2023-12-22T15:26:33;4.67;;;1.20;;
16727;SDS011;8482;54.396;18.590;2023-12-22T15:29:00;1.47;;;1.03;;
16727;SDS011;8482;54.396;18.590;2023-12-22T15:31:27;1.40;;;0.97;;
16727;SDS011;8482;54.396;18.590;2023-12-22T15:33:56;2.67;;;0.97;;
16727;SDS011;8482;54.396;18.590;2023-12-22T15:36:22;1.50;;;0.97;;
16727;SDS011;8482;54.396;18.590;2023-12-22T15:38:48;2.30;;;1.03;;
16727;SDS011;8482;54.396;18.590;2023-12-22T15:41:15;1.20;;;0.90;;
16727;SDS011;8482;54.396;18.590;2023-12-22T15:43:41;1.37;;;0.90;;
16727;SDS011;8482;54.396;18.590;2023-12-22T15:46:07;1.67;;;0.87;;
16727;SDS011;8482;54.396;18.590;2023-12-22T15:48:34;1.70;;;1.00;;
16727;SDS011;8482;54.396;18.590;2023-12-22T15:51:07;2.07;;;0.80;;
16727;SDS011;8482;54.396;18.590;2023-12-22T15:53:37;1.20;;;0.80;;
16727;SDS011;8482;54.396;18.590;2023-12-22T15:56:06;1.73;;;0.83;;
16727;SDS011;8482;54.396;18.590;2023-12-22T15:58:37;1.60;;;0.80;;
16727;SDS011;8482;54.396;18.590;2023-12-22T16:01:05;2.13;;;0.90;;
16727;SDS011;8482;54.396;18.590;2023-12-22T16:03:32;1.97;;;1.10;;
16727;SDS011;8482;54.396;18.590;2023-12-22T16:06:01;1.60;;;1.10;;
16727;SDS011;8482;54.396;18.590;2023-12-22T16:08:29;2.03;;;1.00;;
16727;SDS011;8482;54.396;18.590;2023-12-22T16:10:55;2.70;;;1.20;;
16727;SDS011;8482;54.396;18.590;2023-12-22T16:13:21;1.80;;;1.10;;
16727;SDS011;8482;54.396;18.590;2023-12-22T16:15:48;2.40;;;1.17;;
16727;SDS011;8482;54.396;18.590;2023-12-22T16:18:13;2.53;;;1.20;;
16727;SDS011;8482;54.396;18.590;2023-12-22T16:20:39;2.70;;;1.50;;
16727;SDS011;8482;54.396;18.590;2023-12-22T16:23:05;2.67;;;1.40;;
16727;SDS011;8482;54.396;18.590;2023-12-22T16:25:31;3.33;;;1.40;;
16727;SDS011;8482;54.396;18.590;2023-12-22T16:27:57;2.57;;;1.40;;
16727;SDS011;8482;54.396;18.590;2023-12-22T16:30:23;2.50;;;1.50;;
16727;SDS011;8482;54.396;18.590;2023-12-22T16:32:49;1.87;;;1.17;;
16727;SDS011;8482;54.396;18.590;2023-12-22T16:35:15;2.80;;;1.53;;
16727;SDS011;8482;54.396;18.590;2023-12-22T16:37:43;5.10;;;2.00;;
16727;SDS011;8482;54.396;18.590;2023-12-22T16:40:11;3.93;;;1.50;;
16727;SDS011;8482;54.396;18.590;2023-12-22T16:42:39;3.10;;;1.50;;
16727;SDS011;8482;54.396;18.590;2023-12-22T16:45:05;3.37;;;1.50;;
16727;SDS011;8482;54.396;18.590;2023-12-22T16:47:32;3.43;;;1.57;;
16727;SDS011;8482;54.396;18.590;2023-12-22T16:49:58;2.60;;;1.50;;
16727;SDS011;8482;54.396;18.590;2023-12-22T16:52:25;3.30;;;1.33;;
16727;SDS011;8482;54.396;18.590;2023-12-22T16:54:54;3.83;;;1.57;;
16727;SDS011;8482;54.396;18.590;2023-12-22T16:57:20;4.20;;;1.57;;
16727;SDS011;8482;54.396;18.590;2023-12-22T16:59:46;4.03;;;1.60;;
16727;SDS011;8482;54.396;18.590;2023-12-22T17:02:11;3.73;;;1.50;;
16727;SDS011;8482;54.396;18.590;2023-12-22T17:04:37;3.23;;;1.67;;
16727;SDS011;8482;54.396;18.590;2023-12-22T17:07:03;5.67;;;2.87;;
16727;SDS011;8482;54.396;18.590;2023-12-22T17:09:31;4.07;;;1.70;;
16727;SDS011;8482;54.396;18.590;2023-12-22T17:11:57;3.47;;;1.70;;
16727;SDS011;8482;54.396;18.590;2023-12-22T17:14:23;5.50;;;2.03;;
16727;SDS011;8482;54.396;18.590;2023-12-22T17:16:49;5.03;;;1.80;;
16727;SDS011;8482;54.396;18.590;2023-12-22T17:19:15;7.07;;;2.60;;
16727;SDS011;8482;54.396;18.590;2023-12-22T17:21:41;5.60;;;2.27;;
16727;SDS011;8482;54.396;18.590;2023-12-22T17:24:10;4.87;;;2.50;;
16727;SDS011;8482;54.396;18.590;2023-12-22T17:26:36;6.57;;;2.50;;
16727;SDS011;8482;54.396;18.590;2023-12-22T17:29:02;4.60;;;2.00;;
16727;SDS011;8482;54.396;18.590;2023-12-22T17:31:29;3.80;;;2.20;;
16727;SDS011;8482;54.396;18.590;2023-12-22T17:33:56;5.53;;;2.63;;
16727;SDS011;8482;54.396;18.590;2023-12-22T17:36:23;5.50;;;1.80;;
16727;SDS011;8482;54.396;18.590;2023-12-22T17:38:50;4.57;;;2.07;;
16727;SDS011;8482;54.396;18.590;2023-12-22T17:41:16;6.83;;;2.10;;
16727;SDS011;8482;54.396;18.590;2023-12-22T17:43:42;5.63;;;2.20;;
16727;SDS011;8482;54.396;18.590;2023-12-22T17:46:08;4.60;;;2.10;;
16727;SDS011;8482;54.396;18.590;2023-12-22T17:48:34;6.13;;;2.27;;
16727;SDS011;8482;54.396;18.590;2023-12-22T17:51:02;5.93;;;2.30;;
16727;SDS011;8482;54.396;18.590;2023-12-22T17:53:28;4.10;;;1.97;;
16727;SDS011;8482;54.396;18.590;2023-12-22T17:55:54;4.30;;;2.10;;
16727;SDS011;8482;54.396;18.590;2023-12-22T17:58:20;4.50;;;2.30;;
16727;SDS011;8482;54.396;18.590;2023-12-22T18:00:45;5.27;;;2.27;;
16727;SDS011;8482;54.396;18.590;2023-12-22T18:03:11;4.73;;;1.80;;
16727;SDS011;8482;54.396;18.590;2023-12-22T18:05:37;7.60;;;2.60;;
16727;SDS011;8482;54.396;18.590;2023-12-22T18:08:03;6.07;;;2.63;;
16727;SDS011;8482;54.396;18.590;2023-12-22T18:10:29;4.53;;;2.13;;
16727;SDS011;8482;54.396;18.590;2023-12-22T18:12:55;4.97;;;2.43;;
16727;SDS011;8482;54.396;18.590;2023-12-22T18:15:21;4.90;;;2.27;;
16727;SDS011;8482;54.396;18.590;2023-12-22T18:17:47;5.97;;;2.37;;
16727;SDS011;8482;54.396;18.590;2023-12-22T18:20:14;6.47;;;2.43;;
16727;SDS011;8482;54.396;18.590;2023-12-22T18:22:40;5.83;;;2.60;;
16727;SDS011;8482;54.396;18.590;2023-12-22T18:25:06;8.03;;;3.30;;
16727;SDS011;8482;54.396;18.590;2023-12-22T18:27:35;6.67;;;2.47;;
16727;SDS011;8482;54.396;18.590;2023-12-22T18:30:03;9.77;;;2.87;;
16727;SDS011;8482;54.396;18.590;2023-12-22T18:32:30;4.80;;;2.27;;
16727;SDS011;8482;54.396;18.590;2023-12-22T18:34:57;5.57;;;2.40;;
16727;SDS011;8482;54.396;18.590;2023-12-22T18:37:23;4.80;;;2.23;;
16727;SDS011;8482;54.396;18.590;2023-12-22T18:39:49;7.03;;;2.50;;
16727;SDS011;8482;54.396;18.590;2023-12-22T18:42:15;4.77;;;2.00;;
16727;SDS011;8482;54.396;18.590;2023-12-22T18:44:40;7.10;;;2.57;;
16727;SDS011;8482;54.396;18.590;2023-12-22T18:47:06;5.40;;;2.57;;
16727;SDS011;8482;54.396;18.590;2023-12-22T18:49:32;6.23;;;2.07;;
16727;SDS011;8482;54.396;18.590;2023-12-22T18:51:58;6.67;;;3.23;;
16727;SDS011;8482;54.396;18.590;2023-12-22T18:54:23;6.33;;;2.50;;
16727;SDS011;8482;54.396;18.590;2023-12-22T18:56:50;7.77;;;2.70;;
16727;SDS011;8482;54.396;18.590;2023-12-22T18:59:16;4.17;;;2.13;;
16727;SDS011;8482;54.396;18.590;2023-12-22T19:01:41;6.20;;;2.10;;
16727;SDS011;8482;54.396;18.590;2023-12-22T19:04:08;5.30;;;2.27;;
16727;SDS011;8482;54.396;18.590;2023-12-22T19:06:34;6.83;;;2.53;;
16727;SDS011;8482;54.396;18.590;2023-12-22T19:08:59;5.33;;;2.20;;
16727;SDS011;8482;54.396;18.590;2023-12-22T19:11:25;5.83;;;2.20;;
16727;SDS011;8482;54.396;18.590;2023-12-22T19:13:51;5.70;;;2.23;;
16727;SDS011;8482;54.396;18.590;2023-12-22T19:16:17;6.47;;;2.50;;
16727;SDS011;8482;54.396;18.590;2023-12-22T19:18:43;6.27;;;2.50;;
16727;SDS011;8482;54.396;18.590;2023-12-22T19:21:13;6.23;;;2.50;;
16727;SDS011;8482;54.396;18.590;2023-12-22T19:23:42;7.13;;;2.67;;
16727;SDS011;8482;54.396;18.590;2023-12-22T19:26:08;5.73;;;2.40;;
16727;SDS011;8482;54.396;18.590;2023-12-22T19:28:34;4.87;;;2.40;;
16727;SDS011;8482;54.396;18.590;2023-12-22T19:31:00;4.03;;;1.90;;
16727;SDS011;8482;54.396;18.590;2023-12-22T19:33:26;5.30;;;2.20;;
16727;SDS011;8482;54.396;18.590;2023-12-22T19:35:52;7.57;;;2.53;;
16727;SDS011;8482;54.396;18.590;2023-12-22T19:38:18;6.60;;;2.50;;
16727;SDS011;8482;54.396;18.590;2023-12-22T19:40:46;5.47;;;2.33;;
16727;SDS011;8482;54.396;18.590;2023-12-22T19:43:13;7.70;;;2.10;;
16727;SDS011;8482;54.396;18.590;2023-12-22T19:45:40;5.80;;;2.23;;
16727;SDS011;8482;54.396;18.590;2023-12-22T19:48:06;6.80;;;2.40;;
16727;SDS011;8482;54.396;18.590;2023-12-22T19:50:32;6.67;;;2.57;;
16727;SDS011;8482;54.396;18.590;2023-12-22T19:52:59;5.43;;;2.60;;
16727;SDS011;8482;54.396;18.590;2023-12-22T19:55:28;7.87;;;2.23;;
16727;SDS011;8482;54.396;18.590;2023-12-22T19:57:56;6.30;;;2.33;;
16727;SDS011;8482;54.396;18.590;2023-12-22T20:00:22;8.63;;;2.63;;
16727;SDS011;8482;54.396;18.590;2023-12-22T20:02:48;7.53;;;2.70;;
16727;SDS011;8482;54.396;18.590;2023-12-22T20:05:14;8.40;;;2.60;;
16727;SDS011;8482;54.396;18.590;2023-12-22T20:07:40;6.30;;;2.30;;
16727;SDS011;8482;54.396;18.590;2023-12-22T20:10:06;7.53;;;2.73;;
16727;SDS011;8482;54.396;18.590;2023-12-22T20:12:35;6.67;;;2.53;;
16727;SDS011;8482;54.396;18.590;2023-12-22T20:15:07;5.90;;;2.10;;
16727;SDS011;8482;54.396;18.590;2023-12-22T20:17:37;6.03;;;2.23;;
16727;SDS011;8482;54.396;18.590;2023-12-22T20:20:07;5.90;;;2.67;;
16727;SDS011;8482;54.396;18.590;2023-12-22T20:22:34;5.50;;;2.40;;
16727;SDS011;8482;54.396;18.590;2023-12-22T20:25:00;7.07;;;2.47;;
16727;SDS011;8482;54.396;18.590;2023-12-22T20:27:26;6.40;;;2.70;;
16727;SDS011;8482;54.396;18.590;2023-12-22T20:29:51;6.10;;;2.40;;
16727;SDS011;8482;54.396;18.590;2023-12-22T20:32:18;5.50;;;1.97;;
16727;SDS011;8482;54.396;18.590;2023-12-22T20:34:44;6.57;;;2.00;;
16727;SDS011;8482;54.396;18.590;2023-12-22T20:37:09;5.50;;;2.27;;
16727;SDS011;8482;54.396;18.590;2023-12-22T20:39:35;5.20;;;1.97;;
16727;SDS011;8482;54.396;18.590;2023-12-22T20:42:01;5.20;;;2.20;;
16727;SDS011;8482;54.396;18.590;2023-12-22T20:44:27;7.07;;;2.37;;
16727;SDS011;8482;54.396;18.590;2023-12-22T20:46:53;6.50;;;2.93;;
16727;SDS011;8482;54.396;18.590;2023-12-22T20:49:19;6.00;;;2.47;;
16727;SDS011;8482;54.396;18.590;2023-12-22T20:51:45;5.20;;;2.40;;
16727;SDS011;8482;54.396;18.590;2023-12-22T20:54:17;7.37;;;2.53;;
16727;SDS011;8482;54.396;18.590;2023-12-22T20:56:44;5.37;;;2.30;;
16727;SDS011;8482;54.396;18.590;2023-12-22T20:59:10;7.23;;;2.83;;
16727;SDS011;8482;54.396;18.590;2023-12-22T21:01:36;3.77;;;1.77;;
16727;SDS011;8482;54.396;18.590;2023-12-22T21:04:04;5.83;;;2.30;;
16727;SDS011;8482;54.396;18.590;2023-12-22T21:06:29;6.23;;;2.30;;
16727;SDS011;8482;54.396;18.590;2023-12-22T21:08:55;5.30;;;2.17;;
16727;SDS011;8482;54.396;18.590;2023-12-22T21:11:21;4.90;;;2.20;;
16727;SDS011;8482;54.396;18.590;2023-12-22T21:13:50;4.97;;;2.20;;
16727;SDS011;8482;54.396;18.590;2023-12-22T21:16:16;6.43;;;2.20;;
16727;SDS011;8482;54.396;18.590;2023-12-22T21:18:42;7.30;;;2.47;;
16727;SDS011;8482;54.396;18.590;2023-12-22T21:21:07;4.70;;;2.10;;
16727;SDS011;8482;54.396;18.590;2023-12-22T21:23:33;4.00;;;2.00;;
16727;SDS011;8482;54.396;18.590;2023-12-22T21:25:59;5.33;;;2.10;;
16727;SDS011;8482;54.396;18.590;2023-12-22T21:28:25;5.13;;;2.40;;
16727;SDS011;8482;54.396;18.590;2023-12-22T21:30:51;5.23;;;2.17;;
16727;SDS011;8482;54.396;18.590;2023-12-22T21:33:19;6.00;;;2.20;;
16727;SDS011;8482;54.396;18.590;2023-12-22T21:35:44;5.63;;;2.00;;
16727;SDS011;8482;54.396;18.590;2023-12-22T21:38:10;4.83;;;2.00;;
16727;SDS011;8482;54.396;18.590;2023-12-22T21:40:36;4.67;;;2.03;;
16727;SDS011;8482;54.396;18.590;2023-12-22T21:43:02;6.23;;;2.40;;
16727;SDS011;8482;54.396;18.590;2023-12-22T21:45:28;6.90;;;2.20;;
16727;SDS011;8482;54.396;18.590;2023-12-22T21:47:55;6.37;;;2.50;;
16727;SDS011;8482;54.396;18.590;2023-12-22T21:50:21;5.60;;;2.20;;
16727;SDS011;8482;54.396;18.590;2023-12-22T21:52:48;5.30;;;2.23;;
16727;SDS011;8482;54.396;18.590;2023-12-22T21:55:14;4.93;;;1.77;;
16727;SDS011;8482;54.396;18.590;2023-12-22T21:57:40;5.20;;;1.90;;
16727;SDS011;8482;54.396;18.590;2023-12-22T22:00:07;5.20;;;2.27;;
16727;SDS011;8482;54.396;18.590;2023-12-22T22:02:35;6.00;;;2.73;;
16727;SDS011;8482;54.396;18.590;2023-12-22T22:05:00;4.73;;;2.00;;
16727;SDS011;8482;54.396;18.590;2023-12-22T22:07:26;5.50;;;2.33;;
16727;SDS011;8482;54.396;18.590;2023-12-22T22:09:52;6.17;;;2.03;;
16727;SDS011;8482;54.396;18.590;2023-12-22T22:12:18;5.07;;;1.80;;
16727;SDS011;8482;54.396;18.590;2023-12-22T22:14:44;5.27;;;2.00;;
16727;SDS011;8482;54.396;18.590;2023-12-22T22:17:10;5.37;;;2.20;;
16727;SDS011;8482;54.396;18.590;2023-12-22T22:19:36;5.83;;;2.07;;
16727;SDS011;8482;54.396;18.590;2023-12-22T22:22:01;4.90;;;1.97;;
16727;SDS011;8482;54.396;18.590;2023-12-22T22:24:27;5.57;;;2.40;;
16727;SDS011;8482;54.396;18.590;2023-12-22T22:26:53;4.67;;;2.00;;
16727;SDS011;8482;54.396;18.590;2023-12-22T22:29:19;4.30;;;1.93;;
16727;SDS011;8482;54.396;18.590;2023-12-22T22:31:45;5.03;;;1.87;;
16727;SDS011;8482;54.396;18.590;2023-12-22T22:34:10;6.93;;;1.90;;
16727;SDS011;8482;54.396;18.590;2023-12-22T22:36:36;5.93;;;2.87;;
16727;SDS011;8482;54.396;18.590;2023-12-22T22:39:02;4.90;;;2.03;;
16727;SDS011;8482;54.396;18.590;2023-12-22T22:41:29;5.23;;;2.57;;
16727;SDS011;8482;54.396;18.590;2023-12-22T22:43:54;5.07;;;1.97;;
16727;SDS011;8482;54.396;18.590;2023-12-22T22:46:20;4.47;;;1.67;;
16727;SDS011;8482;54.396;18.590;2023-12-22T22:48:46;4.77;;;2.00;;
16727;SDS011;8482;54.396;18.590;2023-12-22T22:51:22;4.77;;;1.73;;
16727;SDS011;8482;54.396;18.590;2023-12-22T22:53:49;6.10;;;2.23;;
16727;SDS011;8482;54.396;18.590;2023-12-22T22:56:16;4.43;;;1.90;;
16727;SDS011;8482;54.396;18.590;2023-12-22T22:58:43;5.73;;;2.13;;
16727;SDS011;8482;54.396;18.590;2023-12-22T23:01:12;5.03;;;1.70;;
16727;SDS011;8482;54.396;18.590;2023-12-22T23:03:38;6.37;;;2.07;;
16727;SDS011;8482;54.396;18.590;2023-12-22T23:06:07;4.00;;;1.83;;
16727;SDS011;8482;54.396;18.590;2023-12-22T23:08:33;5.40;;;1.77;;
